Terminal Aerodrome Forecast
Issued by NWS Miami, FL

Home | Current Version | Previous Version | Text Only | Print | Product List | Glossary On
Versions: 1 2 3 4 5 6 7 8 9 10 11 12 13 14 15 16 17 18 19 20 21 22 23 24 25 26 27 28
000
FTUS42 KMFL 300907 AAA
TAFFLL
TAF AMD
KFLL 300907Z 3009/3106 17005KT P6SM -SHRA SCT020 SCT050 BKN090
     FM301300 16013KT P6SM -SHRA SCT025 BKN035 OVC080
     FM310000 16009KT P6SM VCSH SCT020 BKN040 BKN080=

USA.gov is the U.S. government's official web portal to all federal, state and local government web resources and services.